Weather at Las Cruces Agricultural Airport

Public forecast

Using degrees Celsius for public forecast. Weather courtesy of forecast.io.

Closest aviation weather report (METAR) to Las Cruces Agricultural Airport

Closest report is Ignacio Agramonte International Airport, 34.2 nm (63.3 km) NE.

2024/06/13 08:50 (retrieved 56 minutes ago)

MUCM 130850Z 04004KT 1500 BR FEW020 BKN200 26/25 Q1013

Closest aviation forecast (TAF) to Las Cruces Agricultural Airport

Closest forecast is Ignacio Agramonte International Airport, 34.2 nm (63.3 km) NE.

2024/06/13 10:27 Ammendment (retrieved 0 seconds ago)

TAF AMD MUCM 130915Z 1310/1406 VRB04KT 9000 FEW020 BKN100 TEMPO 1310/1312 1500 BR TEMPO 1321/1324 FEW018CB